Time;durP1;ratioP1;P1;durP2;ratioP2;P2;SDS_P1;SDS_P2;PMS_P1;PMS_P2;Temp;Humidity;BMP_temperature;BMP_pressure;BME280_temperature;BME280_humidity;BME280_pressure;Samples;Min_cycle;Max_cycle;Signal;HPM_P1;HPM_P2
2022/04/15 00:00:08;;;;;;;;;;;13.40;99.90;;;13.36;100.00;101099.53;5028505;28;20060;-77
2022/04/15 00:02:39;;;;;;;9.70;6.97;;;13.40;99.80;;;13.16;100.00;101094.72;5014242;28;19925;-77
2022/04/15 00:05:30;;;;;;;11.82;6.35;;;13.40;99.90;;;13.09;100.00;101098.44;5037205;28;20076;-78
2022/04/15 00:07:55;;;;;;;7.20;6.07;;;13.40;99.90;;;13.05;100.00;101092.34;5037809;28;20462;-78
2022/04/15 00:10:23;;;;;;;11.75;6.03;;;14.50;99.90;;;12.96;100.00;101089.91;5020031;28;20033;-79
2022/04/15 00:12:53;;;;;;;7.40;6.13;;;14.00;99.90;;;13.07;100.00;101094.97;5033291;28;20049;-78
2022/04/15 00:15:21;;;;;;;6.88;5.50;;;13.20;99.90;;;12.99;100.00;101090.69;5029278;28;20529;-77
2022/04/15 00:17:48;;;;;;;11.77;6.65;;;13.30;99.90;;;13.02;100.00;101087.13;5038508;28;20042;-79
2022/04/15 00:20:15;;;;;;;7.53;6.55;;;13.50;99.90;;;13.10;100.00;101093.09;5036847;28;20049;-77
2022/04/15 00:22:42;;;;;;;8.65;6.80;;;13.20;99.90;;;13.07;100.00;101097.59;5028283;28;20042;-78
2022/04/15 00:25:10;;;;;;;9.85;6.38;;;13.20;99.90;;;13.02;100.00;101090.63;5029308;28;20055;-78
2022/04/15 00:27:39;;;;;;;8.07;6.85;;;13.10;99.90;;;13.10;100.00;101097.53;5029333;28;20045;-78
2022/04/15 00:30:09;;;;;;;8.27;7.18;;;13.10;99.90;;;13.03;100.00;101089.75;5031976;28;20064;-79
2022/04/15 00:32:36;;;;;;;7.72;6.95;;;13.20;99.90;;;12.98;100.00;101093.41;5021582;28;20049;-79
2022/04/15 00:35:04;;;;;;;7.40;6.60;;;13.90;99.90;;;13.04;100.00;101090.59;5037476;28;20034;-77
2022/04/15 00:37:31;;;;;;;9.55;6.75;;;13.10;99.90;;;13.01;100.00;101088.03;5018369;28;20045;-77
2022/04/15 00:40:01;;;;;;;12.13;7.75;;;13.10;99.90;;;13.02;100.00;101098.53;5034176;28;20052;-77
2022/04/15 00:42:29;;;;;;;8.63;7.40;;;13.10;99.90;;;12.95;100.00;101094.31;5036406;28;20048;-79
2022/04/15 00:44:57;;;;;;;9.73;6.80;;;13.00;99.90;;;12.93;100.00;101101.41;5021358;28;20179;-79
2022/04/15 00:47:45;;;;;;;11.68;8.73;;;13.00;99.90;;;12.91;100.00;101100.59;5036706;28;20053;-77
2022/04/15 00:50:13;;;;;;;8.85;7.40;;;13.00;99.90;;;12.93;100.00;101097.88;5046417;28;20042;-78
2022/04/15 00:52:44;;;;;;;10.15;7.35;;;13.00;99.90;;;12.89;100.00;101100.59;4997873;28;20037;-79
2022/04/15 00:55:13;;;;;;;10.75;7.43;;;13.00;99.90;;;12.67;100.00;101096.69;5036854;28;20132;-78
2022/04/15 00:57:56;;;;;;;9.77;7.20;;;12.90;99.90;;;12.62;100.00;101097.66;5037203;28;20037;-79
2022/04/15 01:00:28;;;;;;;9.07;7.45;;;12.90;99.90;;;12.65;100.00;101106.44;5036734;28;20098;-76
2022/04/15 01:03:01;;;;;;;8.82;7.93;;;12.80;99.90;;;12.53;100.00;101105.78;5028515;28;20060;-76
2022/04/15 01:05:29;;;;;;;8.25;7.13;;;12.80;99.90;;;12.46;100.00;101104.13;5029098;28;20071;-78
2022/04/15 01:08:00;;;;;;;9.23;7.28;;;12.60;99.90;;;12.48;100.00;101099.69;5020436;28;20144;-79
2022/04/15 01:10:27;;;;;;;7.53;6.78;;;13.20;99.90;;;12.38;100.00;101104.28;5030195;28;20049;-76
2022/04/15 01:12:57;;;;;;;10.05;7.13;;;13.70;99.90;;;12.41;100.00;101100.72;5027220;28;20051;-76
2022/04/15 01:15:45;;;;;;;8.77;6.93;;;12.60;99.90;;;12.35;100.00;101107.00;5027486;28;20048;-76
2022/04/15 01:18:12;;;;;;;9.05;7.43;;;12.70;99.90;;;12.33;100.00;101103.53;5014047;28;20045;-77
2022/04/15 01:20:42;;;;;;;8.13;6.72;;;12.50;99.90;;;12.30;100.00;101101.81;5018782;28;20508;-78
2022/04/15 01:23:11;;;;;;;9.30;7.10;;;12.50;99.90;;;12.33;100.00;101104.41;5019375;28;20194;-76
2022/04/15 01:25:38;;;;;;;7.68;6.88;;;12.50;99.90;;;12.19;100.00;101106.44;5010764;28;20409;-77
2022/04/15 01:28:06;;;;;;;8.80;6.65;;;12.40;99.90;;;12.15;100.00;101116.19;5026985;28;20136;-77
2022/04/15 01:30:34;;;;;;;7.90;6.05;;;12.30;99.90;;;12.10;100.00;101114.50;5033734;28;20072;-77
2022/04/15 01:33:03;;;;;;;11.32;7.85;;;12.40;99.90;;;12.16;100.00;101109.09;5036170;28;20057;-79
2022/04/15 01:35:35;;;;;;;7.85;6.32;;;12.30;99.90;;;12.31;100.00;101113.25;5036852;28;20045;-78
2022/04/15 01:38:06;;;;;;;10.07;7.30;;;12.30;99.90;;;12.17;100.00;101117.00;5036436;28;20055;-79
2022/04/15 01:40:33;;;;;;;7.70;6.28;;;12.30;99.90;;;12.24;100.00;101116.88;5034868;28;20099;-79
2022/04/15 01:43:00;;;;;;;10.88;7.20;;;12.40;99.90;;;12.11;100.00;101114.50;5029219;28;20053;-76
2022/04/15 01:45:28;;;;;;;8.25;6.28;;;12.30;99.90;;;12.19;100.00;101119.63;5042512;28;20061;-76
2022/04/15 01:47:55;;;;;;;10.68;6.55;;;12.70;99.90;;;12.19;100.00;101122.28;5026398;28;20047;-76
2022/04/15 01:50:23;;;;;;;10.70;7.05;;;12.30;99.90;;;12.18;100.00;101120.53;5025578;28;20052;-77
2022/04/15 01:52:50;;;;;;;9.27;6.70;;;12.30;99.90;;;12.07;100.00;101128.63;5026608;28;20049;-76
2022/04/15 01:55:17;;;;;;;9.20;6.68;;;12.20;99.90;;;11.99;100.00;101128.72;5027094;28;20128;-76
2022/04/15 01:57:45;;;;;;;9.82;7.28;;;12.20;99.90;;;11.95;100.00;101120.91;5026477;28;20049;-76
2022/04/15 02:00:12;;;;;;;8.32;6.88;;;12.00;99.90;;;11.94;100.00;101119.16;5042519;28;20049;-76
2022/04/15 02:02:39;;;;;;;11.85;7.55;;;12.00;99.90;;;11.98;100.00;101123.50;5026706;28;20490;-77
2022/04/15 02:05:07;;;;;;;12.00;8.15;;;12.50;99.90;;;11.82;100.00;101126.41;5029737;28;20060;-76
2022/04/15 02:07:35;;;;;;;10.80;8.02;;;12.00;99.90;;;11.78;100.00;101129.97;5030150;28;20449;-76
2022/04/15 02:10:04;;;;;;;8.02;7.00;;;11.90;99.90;;;11.68;100.00;101129.25;5013751;28;20417;-77
2022/04/15 02:12:31;;;;;;;9.40;6.95;;;11.90;99.90;;;11.58;100.00;101127.69;5030489;28;20045;-76
2022/04/15 02:14:58;;;;;;;11.35;6.72;;;11.80;99.90;;;11.61;100.00;101139.00;5029929;28;20521;-76
2022/04/15 02:17:25;;;;;;;8.82;6.30;;;11.80;99.90;;;11.53;100.00;101124.22;5032429;28;20053;-77
2022/04/15 02:19:52;;;;;;;9.45;6.32;;;12.30;99.90;;;11.48;100.00;101124.31;5040858;28;20511;-78
2022/04/15 02:22:19;;;;;;;11.73;6.95;;;11.70;99.90;;;11.45;100.00;101134.88;5039584;28;20053;-78
2022/04/15 02:24:46;;;;;;;9.57;7.35;;;11.70;99.90;;;11.32;100.00;101134.22;5006579;28;20414;-77
2022/04/15 02:27:13;;;;;;;9.90;7.00;;;11.70;99.90;;;11.26;100.00;101137.81;5037403;28;20060;-78
2022/04/15 02:29:40;;;;;;;9.18;7.15;;;13.10;99.90;;;11.23;100.00;101136.97;5038485;28;20049;-77
2022/04/15 02:32:08;;;;;;;8.23;6.70;;;11.50;99.90;;;11.26;100.00;101139.59;5056352;28;20414;-77
2022/04/15 02:34:35;;;;;;;8.48;7.40;;;11.50;99.90;;;11.18;100.00;101130.00;5031940;28;20053;-78
2022/04/15 02:37:02;;;;;;;8.15;6.82;;;11.50;99.90;;;11.09;100.00;101138.06;5036140;28;20041;-78
2022/04/15 02:39:29;;;;;;;12.27;6.90;;;11.40;99.90;;;11.01;100.00;101132.00;5038524;28;20099;-77
2022/04/15 02:42:00;;;;;;;7.70;6.55;;;11.40;99.90;;;11.03;100.00;101135.50;5039005;28;20064;-78
2022/04/15 02:44:29;;;;;;;9.02;6.47;;;11.30;99.90;;;10.99;100.00;101133.78;5021346;28;20050;-78
2022/04/15 02:46:58;;;;;;;10.45;7.53;;;11.30;99.90;;;10.98;100.00;101148.72;5038411;28;20045;-79
2022/04/15 02:49:29;;;;;;;9.68;7.53;;;12.30;99.90;;;10.97;100.00;101146.13;5037682;28;20053;-78
2022/04/15 02:52:00;;;;;;;7.75;6.97;;;12.20;99.90;;;10.91;100.00;101145.28;5021488;28;20095;-78
2022/04/15 02:54:27;;;;;;;10.57;7.20;;;11.20;99.90;;;10.84;100.00;101143.63;5037637;28;20076;-78
2022/04/15 02:56:56;;;;;;;9.18;6.70;;;11.50;99.90;;;10.83;100.00;101135.75;5037476;28;20094;-77
2022/04/15 02:59:23;;;;;;;9.85;7.32;;;11.10;99.90;;;10.75;100.00;101149.00;5021170;28;20394;-76
2022/04/15 03:01:50;;;;;;;10.85;7.40;;;11.10;99.90;;;10.58;100.00;101136.06;5037409;28;20047;-77
2022/04/15 03:04:17;;;;;;;9.07;7.53;;;11.00;99.90;;;10.71;100.00;101142.94;5016072;28;20596;-76
2022/04/15 03:06:45;;;;;;;8.25;6.38;;;11.40;99.90;;;10.74;100.00;101144.63;5042494;28;20054;-76
2022/04/15 03:09:12;;;;;;;9.07;7.13;;;11.00;99.90;;;10.70;100.00;101137.66;5009708;28;20054;-76
2022/04/15 03:11:39;;;;;;;9.48;7.43;;;11.00;99.90;;;10.57;100.00;101144.84;5010875;28;20134;-76
2022/04/15 03:14:06;;;;;;;8.60;7.32;;;10.90;99.90;;;10.61;100.00;101138.66;5009128;28;20080;-76
2022/04/15 03:16:34;;;;;;;10.57;8.07;;;12.00;99.90;;;10.57;100.00;101144.84;5028928;28;20046;-76
2022/04/15 03:19:04;;;;;;;9.43;6.70;;;10.80;99.90;;;10.52;100.00;101133.47;5026025;28;20057;-76
2022/04/15 03:21:31;;;;;;;9.40;7.28;;;10.80;99.90;;;10.45;100.00;101145.84;5013093;28;20049;-77
2022/04/15 03:23:58;;;;;;;9.95;6.97;;;10.80;99.90;;;10.31;100.00;101138.97;5028991;28;20045;-76
2022/04/15 03:26:25;;;;;;;12.13;7.10;;;11.40;99.90;;;10.34;100.00;101135.41;5029804;28;20046;-77
2022/04/15 03:28:52;;;;;;;7.95;7.13;;;10.70;99.90;;;10.48;100.00;101144.06;5028425;28;20176;-77
2022/04/15 03:31:19;;;;;;;8.20;7.40;;;10.70;99.90;;;10.47;100.00;101141.47;5028804;28;20045;-77
2022/04/15 03:33:46;;;;;;;9.00;6.90;;;10.70;99.90;;;10.35;100.00;101145.03;5017741;28;20526;-77
2022/04/15 03:36:14;;;;;;;10.20;6.45;;;12.10;99.90;;;10.29;100.00;101148.59;5037066;28;20116;-78
2022/04/15 03:38:41;;;;;;;8.07;7.25;;;10.70;99.90;;;10.45;100.00;101141.47;5036321;28;20088;-76
2022/04/15 03:41:11;;;;;;;9.38;6.45;;;11.40;99.90;;;10.39;100.00;101144.13;5020055;28;20105;-78
2022/04/15 03:43:38;;;;;;;8.70;6.70;;;10.60;99.90;;;10.32;100.00;101145.06;5029455;28;20068;-76
2022/04/15 03:46:07;;;;;;;9.45;7.22;;;10.60;99.90;;;10.18;100.00;101142.59;5029125;28;20045;-77
2022/04/15 03:48:34;;;;;;;8.65;6.82;;;12.20;99.90;;;10.19;100.00;101155.72;5030360;28;20054;-77
2022/04/15 03:51:01;;;;;;;10.80;7.15;;;11.30;99.90;;;10.20;100.00;101153.97;5028708;28;20052;-77
2022/04/15 03:53:28;;;;;;;8.85;7.88;;;10.50;99.90;;;10.17;100.00;101154.00;5029724;28;20037;-77
2022/04/15 03:55:56;;;;;;;12.60;8.95;;;11.10;99.90;;;10.05;100.00;101155.84;5029515;28;20045;-77
2022/04/15 03:58:23;;;;;;;11.73;9.90;;;9.80;99.90;;;10.07;100.00;101161.13;5028158;28;20057;-77
2022/04/15 04:00:50;;;;;;;11.25;8.82;;;10.30;99.90;;;10.17;100.00;101160.13;5026611;28;20049;-77
2022/04/15 04:03:17;;;;;;;12.38;9.43;;;10.30;99.90;;;10.19;100.00;101152.22;5027875;28;20757;-76
2022/04/15 04:05:44;;;;;;;10.30;8.85;;;10.40;99.90;;;10.10;100.00;101163.72;5028605;28;20073;-77
2022/04/15 04:08:11;;;;;;;13.57;9.40;;;10.30;99.90;;;10.04;100.00;101166.38;5029271;28;20056;-77
2022/04/15 04:10:38;;;;;;;11.68;8.98;;;10.30;99.90;;;9.91;100.00;101165.63;5027350;28;20603;-77
2022/04/15 04:13:08;;;;;;;11.18;8.02;;;10.70;99.90;;;9.76;100.00;101174.53;5028085;28;20046;-77
2022/04/15 04:15:36;;;;;;;10.88;7.78;;;10.20;99.90;;;9.70;100.00;101164.03;5028651;28;20760;-77
2022/04/15 04:18:10;;;;;;;11.18;7.80;;;10.20;99.90;;;9.62;100.00;101167.59;5028559;28;20045;-77
2022/04/15 04:20:37;;;;;;;10.07;8.60;;;10.20;99.90;;;9.61;100.00;101173.75;5029576;28;20044;-77
2022/04/15 04:23:04;;;;;;;9.35;8.43;;;10.10;99.90;;;9.67;100.00;101166.69;5029423;28;20518;-77
2022/04/15 04:25:32;;;;;;;10.38;7.20;;;10.00;99.90;;;9.54;100.00;101172.03;5029055;28;20540;-77
2022/04/15 04:27:59;;;;;;;11.18;8.25;;;9.70;99.90;;;9.57;100.00;101172.00;5031497;28;20060;-77
2022/04/15 04:30:26;;;;;;;9.52;7.43;;;9.90;99.90;;;9.62;100.00;101170.22;5030739;28;20184;-77
2022/04/15 04:32:58;;;;;;;9.23;7.55;;;9.90;99.90;;;9.65;100.00;101177.19;5031433;28;20088;-77
2022/04/15 04:35:26;;;;;;;13.25;9.15;;;10.60;99.90;;;9.70;100.00;101179.81;5047570;28;20367;-77
2022/04/15 04:37:56;;;;;;;12.52;9.40;;;9.90;99.90;;;9.61;100.00;101184.25;5031036;28;20042;-77
2022/04/15 04:40:23;;;;;;;14.90;11.05;;;9.90;99.90;;;9.59;100.00;101186.00;5027819;28;20042;-76
2022/04/15 04:42:51;;;;;;;12.55;9.25;;;11.10;99.90;;;9.64;100.00;101189.47;5012117;28;20076;-76
2022/04/15 04:45:22;;;;;;;15.00;10.85;;;9.90;99.90;;;9.71;100.00;101187.69;5027870;28;20037;-77
2022/04/15 04:47:49;;;;;;;;;;;9.90;99.90;;;9.68;100.00;101198.22;5012764;28;20037;-76
2022/04/15 04:50:16;;;;;;;12.75;9.38;;;9.90;99.90;;;9.66;100.00;101194.72;5027135;28;19928;-76
2022/04/15 04:52:43;;;;;;;9.43;7.80;;;9.90;99.90;;;9.60;100.00;101197.38;5029042;28;20417;-75
2022/04/15 04:55:10;;;;;;;10.82;7.68;;;9.90;99.90;;;9.67;100.00;101204.34;5028265;28;20049;-76
2022/04/15 04:57:38;;;;;;;16.02;8.15;;;9.90;99.90;;;9.64;100.00;101199.09;5028530;28;20045;-77
2022/04/15 05:00:08;;;;;;;8.52;7.20;;;10.00;99.90;;;9.72;100.00;101205.19;5029107;28;20064;-78
2022/04/15 05:02:36;;;;;;;10.70;8.18;;;9.90;99.90;;;9.80;100.00;101210.41;5028158;28;20057;-76
2022/04/15 05:05:05;;;;;;;15.15;12.88;;;10.00;99.90;;;9.82;100.00;101213.00;5044163;28;20052;-76
2022/04/15 05:07:32;;;;;;;18.67;15.45;;;10.00;99.90;;;9.81;100.00;101213.88;5027671;28;20047;-78
2022/04/15 05:10:06;;;;;;;16.02;13.18;;;10.00;99.90;;;9.84;100.00;101212.09;5013705;28;20037;-78
2022/04/15 05:12:34;;;;;;;12.52;10.32;;;10.10;99.90;;;9.81;100.00;101212.13;4992398;28;20096;-76
2022/04/15 05:15:01;;;;;;;10.60;8.18;;;10.10;99.90;;;9.75;100.00;101223.56;4991185;28;20081;-77
2022/04/15 05:17:28;;;;;;;9.43;8.48;;;10.10;99.90;;;9.88;100.00;101226.97;5008114;28;20042;-77
2022/04/15 05:19:54;;;;;;;9.75;7.70;;;10.10;99.90;;;9.92;100.00;101233.09;5019349;28;20049;-77
2022/04/15 05:22:23;;;;;;;9.15;7.97;;;10.40;99.90;;;9.96;100.00;101226.91;5008254;28;20391;-76
2022/04/15 05:24:52;;;;;;;10.30;7.38;;;10.20;99.90;;;10.02;100.00;101231.25;5008392;28;20438;-78
2022/04/15 05:27:19;;;;;;;9.88;7.63;;;10.20;99.90;;;9.98;100.00;101233.03;5009566;28;20064;-76
2022/04/15 05:29:47;;;;;;;8.73;7.68;;;10.30;99.90;;;10.10;100.00;101231.19;5012993;28;20052;-81
2022/04/15 05:32:15;;;;;;;10.98;7.75;;;10.30;99.90;;;10.17;100.00;101233.75;5013798;28;20084;-80
2022/04/15 05:34:46;;;;;;;8.55;7.28;;;10.30;99.90;;;10.30;100.00;101234.53;4997258;28;20100;-80
2022/04/15 05:37:13;;;;;;;10.35;7.60;;;10.40;99.90;;;10.39;100.00;101235.31;4996732;28;20104;-80
2022/04/15 05:39:40;;;;;;;10.13;8.75;;;10.50;99.90;;;10.46;100.00;101237.06;5012239;28;20058;-80
2022/04/15 05:42:07;;;;;;;9.55;8.55;;;10.50;99.90;;;10.48;100.00;101251.94;4997553;28;20195;-80
2022/04/15 05:44:34;;;;;;;11.13;9.05;;;10.60;99.90;;;10.58;100.00;101249.22;5029878;28;20045;-80
2022/04/15 05:47:02;;;;;;;14.27;11.45;;;11.50;99.90;;;10.53;100.00;101237.84;5013248;28;20050;-80
2022/04/15 05:49:29;;;;;;;14.25;10.05;;;10.70;99.90;;;10.62;100.00;101243.03;5013354;28;20042;-80
2022/04/15 05:51:56;;;;;;;12.45;10.13;;;11.70;99.90;;;10.72;100.00;101247.31;5013237;28;20042;-80
2022/04/15 05:54:23;;;;;;;14.02;9.15;;;10.80;99.90;;;10.75;100.00;101238.50;5011545;28;20445;-80
2022/04/15 05:56:50;;;;;;;12.60;9.50;;;12.50;99.90;;;10.85;100.00;101252.44;4996097;28;20077;-83
2022/04/15 05:59:20;;;;;;;10.93;9.23;;;10.90;99.90;;;10.81;100.00;101243.72;4995768;28;20219;-77
2022/04/15 06:01:50;;;;;;;10.85;9.07;;;12.90;99.90;;;11.01;100.00;101250.50;5043346;28;20136;-74
2022/04/15 06:04:17;;;;;;;13.95;8.88;;;12.80;99.90;;;11.07;100.00;101251.31;5022941;28;20041;-74
2022/04/15 06:06:44;;;;;;;11.50;9.00;;;11.10;99.90;;;11.23;100.00;101259.03;5008698;28;20380;-78
2022/04/15 06:09:11;;;;;;;9.25;8.35;;;11.30;99.90;;;11.32;100.00;101265.94;5005887;28;20410;-79
2022/04/15 06:11:41;;;;;;;18.52;10.55;;;12.30;99.90;;;11.38;100.00;101259.72;5031974;28;20049;-78
2022/04/15 06:14:08;;;;;;;10.75;9.65;;;11.40;99.90;;;11.53;100.00;101256.00;5015580;28;20045;-79
2022/04/15 06:16:38;;;;;;;14.13;9.60;;;11.40;99.90;;;11.60;100.00;101258.53;5032626;28;20061;-79
2022/04/15 06:19:06;;;;;;;11.95;10.75;;;11.60;99.90;;;11.76;100.00;101274.13;5031309;28;20647;-79
2022/04/15 06:21:54;;;;;;;10.90;9.80;;;11.70;99.90;;;11.83;100.00;101275.78;5018795;28;20045;-79
2022/04/15 06:24:21;;;;;;;;;;;11.70;99.90;;;11.92;100.00;101275.63;5016260;28;20045;-78
2022/04/15 06:26:50;;;;;;;14.02;10.38;;;11.80;99.90;;;11.97;100.00;101275.56;5015385;28;20282;-79
2022/04/15 06:29:17;;;;;;;12.10;10.75;;;11.90;99.90;;;12.08;100.00;101277.22;5015297;28;20099;-79
2022/04/15 06:31:44;;;;;;;14.40;11.32;;;12.00;99.90;;;12.17;100.00;101280.56;5015231;28;20570;-77
2022/04/15 06:34:11;;;;;;;13.00;11.23;;;12.70;99.90;;;12.28;100.00;101279.53;5031435;28;20115;-79
2022/04/15 06:36:38;;;;;;;19.10;12.95;;;12.20;99.90;;;12.37;100.00;101282.00;5031847;28;20046;-79
2022/04/15 06:39:06;;;;;;;14.38;12.38;;;12.20;99.90;;;12.47;100.00;101278.31;5030813;28;20045;-78
2022/04/15 06:41:34;;;;;;;15.07;13.48;;;12.60;99.90;;;12.55;100.00;101278.19;5015246;28;20049;-80
2022/04/15 06:44:01;;;;;;;14.70;13.20;;;12.50;99.90;;;12.61;100.00;101278.06;5015159;28;20050;-79
2022/04/15 06:46:28;;;;;;;16.13;13.82;;;12.80;99.90;;;12.72;100.00;101287.56;5048068;28;20496;-81
2022/04/15 06:48:55;;;;;;;16.50;14.75;;;12.90;99.90;;;12.82;100.00;101288.28;5029458;28;20084;-81
2022/04/15 06:51:22;;;;;;;19.10;16.08;;;12.80;99.90;;;12.90;100.00;101281.09;5001572;28;20042;-80
2022/04/15 06:53:49;;;;;;;21.60;18.42;;;12.80;99.90;;;13.02;100.00;101279.97;5018166;28;20048;-79
2022/04/15 06:56:16;;;;;;;21.70;18.33;;;12.90;99.90;;;13.11;100.00;101300.94;5035548;28;20513;-80
2022/04/15 06:58:44;;;;;;;23.15;20.67;;;13.00;99.90;;;13.21;100.00;101288.41;5033814;28;20144;-80
2022/04/15 07:01:11;;;;;;;24.67;21.17;;;13.10;99.90;;;13.35;100.00;101285.47;5002030;28;20072;-80
2022/04/15 07:03:39;;;;;;;27.55;22.67;;;13.20;99.90;;;13.43;100.00;101290.59;5017027;28;20143;-79
2022/04/15 07:06:06;;;;;;;27.52;23.73;;;13.30;99.90;;;13.55;100.00;101297.41;5038408;28;20079;-79
2022/04/15 07:08:33;;;;;;;26.50;23.63;;;14.50;99.90;;;13.64;100.00;101289.28;5054131;28;20513;-80
2022/04/15 07:11:00;;;;;;;25.77;22.98;;;13.50;99.90;;;13.80;100.00;101284.50;5039993;28;20533;-80
2022/04/15 07:13:27;;;;;;;26.17;23.52;;;13.60;99.90;;;13.91;100.00;101294.88;5034274;28;20124;-80
2022/04/15 07:15:55;;;;;;;28.25;25.45;;;13.70;99.90;;;14.02;100.00;101294.63;5033395;28;20053;-81
2022/04/15 07:18:21;;;;;;;27.98;23.75;;;13.80;99.90;;;14.10;100.00;101292.63;5033610;28;20052;-80
2022/04/15 07:20:49;;;;;;;26.77;23.77;;;13.90;99.90;;;14.20;100.00;101293.28;5015287;28;20112;-80
2022/04/15 07:23:15;;;;;;;26.35;23.30;;;15.20;99.90;;;14.28;100.00;101293.09;5000012;28;20060;-80
2022/04/15 07:25:42;;;;;;;29.52;24.15;;;14.10;99.90;;;14.40;100.00;101286.66;5032772;28;20148;-80
2022/04/15 07:28:09;;;;;;;26.50;23.48;;;14.20;99.90;;;14.51;100.00;101286.38;5048888;28;20045;-80
2022/04/15 07:30:37;;;;;;;28.33;25.27;;;14.30;99.90;;;14.65;100.00;101292.19;5015222;28;20064;-80
2022/04/15 07:33:04;;;;;;;26.58;23.67;;;14.50;99.90;;;14.70;100.00;101279.66;5016041;28;20048;-79
2022/04/15 07:35:32;;;;;;;26.77;23.70;;;14.50;99.90;;;14.86;100.00;101290.75;5031597;28;20042;-80
2022/04/15 07:37:59;;;;;;;27.50;24.63;;;14.60;99.90;;;14.99;100.00;101296.59;5014931;28;20100;-79
2022/04/15 07:40:27;;;;;;;26.58;23.60;;;14.70;99.90;;;15.09;100.00;101299.84;5031352;28;20052;-81
2022/04/15 07:42:59;;;;;;;28.25;23.92;;;14.80;99.90;;;15.21;100.00;101289.81;5033096;28;20054;-81
2022/04/15 07:45:26;;;;;;;31.13;24.38;;;14.90;99.90;;;15.26;100.00;101282.59;5034040;28;20383;-80
2022/04/15 07:47:53;;;;;;;27.65;23.48;;;16.30;99.90;;;15.36;100.00;101289.38;5018620;28;20052;-81
2022/04/15 07:50:25;;;;;;;26.60;23.75;;;15.10;99.90;;;15.47;100.00;101297.00;5032762;28;20116;-79
2022/04/15 07:52:58;;;;;;;24.58;21.98;;;15.20;99.90;;;15.56;100.00;101285.25;5016656;28;20127;-78
2022/04/15 07:55:26;;;;;;;25.58;22.83;;;15.40;99.70;;;15.67;100.00;101298.19;5031667;28;20042;-80
2022/04/15 07:57:54;;;;;;;24.85;22.17;;;15.40;99.60;;;15.75;100.00;101288.22;5030859;28;20049;-78
2022/04/15 08:00:22;;;;;;;23.88;20.80;;;16.10;99.70;;;15.87;100.00;101295.78;5016769;28;20104;-80
2022/04/15 08:02:49;;;;;;;24.75;22.13;;;15.60;99.50;;;15.92;100.00;101289.50;5031811;28;20056;-81
2022/04/15 08:05:16;;;;;;;23.40;20.50;;;16.00;99.50;;;16.01;100.00;101297.19;5015777;28;20049;-76
2022/04/15 08:07:43;;;;;;;23.30;20.83;;;16.40;99.30;;;15.98;100.00;101291.94;5031582;28;20053;-77
2022/04/15 08:10:11;;;;;;;23.27;20.13;;;15.90;98.60;;;16.09;100.00;101297.78;5032001;28;20045;-79
2022/04/15 08:12:38;;;;;;;23.98;20.05;;;15.90;98.60;;;16.21;100.00;101296.50;5019379;28;20252;-79
2022/04/15 08:15:06;;;;;;;26.35;21.17;;;16.00;98.60;;;16.28;100.00;101300.72;5036115;28;20038;-77
2022/04/15 08:17:33;;;;;;;21.70;19.40;;;16.00;98.60;;;16.40;100.00;101307.41;5054313;28;20065;-78
2022/04/15 08:20:00;;;;;;;22.70;19.95;;;16.10;98.50;;;16.50;100.00;101301.78;5046804;28;20057;-78
2022/04/15 08:22:27;;;;;;;22.83;20.20;;;16.20;98.40;;;16.53;100.00;101307.84;5018175;28;20076;-78
2022/04/15 08:24:54;;;;;;;23.20;19.63;;;16.30;98.10;;;16.55;100.00;101300.72;5034640;28;20049;-78
2022/04/15 08:27:25;;;;;;;20.05;17.58;;;16.40;98.00;;;16.69;100.00;101296.69;5003808;28;20037;-81
2022/04/15 08:29:52;;;;;;;20.40;18.30;;;16.50;97.90;;;16.63;100.00;101289.81;5035035;28;20037;-81
2022/04/15 08:32:21;;;;;;;18.80;16.88;;;16.50;97.60;;;16.79;100.00;101305.22;5032634;28;20076;-81
2022/04/15 08:34:48;;;;;;;20.23;16.75;;;16.90;97.70;;;16.92;100.00;101303.00;5018416;28;20037;-81
2022/04/15 08:37:15;;;;;;;21.95;19.42;;;17.30;97.80;;;16.91;100.00;101301.25;5035756;28;20049;-81
2022/04/15 08:39:42;;;;;;;18.75;16.00;;;16.70;97.20;;;16.92;100.00;101301.19;5018962;28;20049;-82
2022/04/15 08:42:09;;;;;;;19.75;15.80;;;16.70;97.00;;;17.06;100.00;101313.16;5031590;28;20099;-79
2022/04/15 08:44:37;;;;;;;23.15;16.55;;;16.80;97.00;;;17.12;100.00;101304.97;5031562;28;20046;-81
2022/04/15 08:47:07;;;;;;;19.63;16.40;;;16.90;96.90;;;17.19;100.00;101306.47;5017420;28;20049;-82
2022/04/15 08:49:34;;;;;;;19.88;16.65;;;16.90;96.80;;;17.27;100.00;101308.84;5032612;28;20144;-81
2022/04/15 08:52:04;;;;;;;15.60;13.02;;;17.10;96.60;;;17.32;100.00;101304.22;5034970;28;20394;-82
2022/04/15 08:54:31;;;;;;;14.93;13.10;;;17.10;96.10;;;17.41;100.00;101303.88;5038431;28;20571;-81
2022/04/15 08:56:58;;;;;;;15.70;14.05;;;17.20;96.10;;;17.46;100.00;101311.69;5040260;28;20060;-80
2022/04/15 08:59:26;;;;;;;19.13;13.43;;;17.30;95.70;;;17.58;100.00;101305.91;5040029;28;20057;-81
2022/04/15 09:01:53;;;;;;;17.00;13.18;;;17.30;95.60;;;17.68;100.00;101309.06;5035771;28;20048;-77
2022/04/15 09:04:20;;;;;;;17.30;14.77;;;17.40;95.60;;;17.72;100.00;101304.50;5028502;28;20053;-79
2022/04/15 09:06:55;;;;;;;16.30;14.25;;;17.50;95.40;;;17.83;100.00;101304.06;5028784;28;20079;-80
2022/04/15 09:09:31;;;;;;;15.27;13.68;;;17.60;95.30;;;17.88;100.00;101310.06;5030142;28;20047;-80
2022/04/15 09:12:03;;;;;;;16.88;12.88;;;17.70;95.20;;;17.93;99.62;101316.06;5016445;28;20034;-81
2022/04/15 09:14:30;;;;;;;17.58;13.57;;;17.70;94.80;;;17.99;100.00;101309.63;5034334;28;20041;-81
2022/04/15 09:17:00;;;;;;;17.50;15.50;;;17.80;94.90;;;18.05;100.00;101313.88;5034607;28;20052;-78
2022/04/15 09:19:28;;;;;;;21.83;16.55;;;17.80;94.90;;;18.11;100.00;101311.84;5018057;28;20115;-80
2022/04/15 09:21:57;;;;;;;20.50;17.25;;;17.90;94.80;;;18.16;99.60;101314.31;5034205;28;20080;-78
2022/04/15 09:24:34;;;;;;;20.50;18.08;;;18.00;94.60;;;18.12;99.78;101315.38;4995413;28;20434;-78
2022/04/15 09:27:06;;;;;;;19.25;15.70;;;18.10;94.50;;;18.27;98.51;101312.09;5030428;28;20133;-78
2022/04/15 09:29:41;;;;;;;20.08;17.20;;;18.00;94.50;;;18.38;98.13;101311.63;5029749;28;20051;-80
2022/04/15 09:32:14;;;;;;;21.95;15.85;;;18.10;94.50;;;18.61;98.37;101308.94;5013526;28;20119;-80
2022/04/15 09:35:06;;;;;;;17.17;14.43;;;18.20;94.70;;;18.79;95.83;101315.25;5029605;28;20076;-80
2022/04/15 09:37:45;;;;;;;19.60;16.20;;;18.40;94.50;;;18.73;91.16;101312.84;5030168;28;20045;-79
2022/04/15 09:40:18;;;;;;;16.02;14.35;;;18.40;93.80;;;18.82;91.57;101315.13;5029107;28;20084;-79
2022/04/15 09:42:51;;;;;;;18.25;14.27;;;18.60;93.90;;;19.01;89.99;101301.88;5029800;28;20049;-79
2022/04/15 09:45:21;;;;;;;18.75;15.43;;;18.60;93.80;;;19.05;86.77;101307.94;5029464;28;20053;-79
2022/04/15 09:47:57;;;;;;;16.45;14.25;;;18.80;93.40;;;19.14;85.05;101315.53;5030501;28;20051;-81
2022/04/15 09:50:34;;;;;;;17.23;15.45;;;18.80;93.30;;;19.23;85.56;101315.09;5022509;28;20124;-81
2022/04/15 09:53:17;;;;;;;17.80;15.95;;;17.60;92.90;;;19.20;84.66;101306.38;5031481;28;20073;-82
2022/04/15 09:55:52;;;;;;;21.17;16.45;;;19.00;93.00;;;19.20;82.18;101301.91;5032782;28;20052;-80
2022/04/15 09:58:31;;;;;;;18.23;14.50;;;19.60;92.80;;;19.25;83.92;101304.38;5016134;28;20557;-82
2022/04/15 10:01:03;;;;;;;20.27;16.27;;;20.20;93.20;;;19.40;82.01;101309.00;5030393;28;20092;-81
2022/04/15 10:03:35;;;;;;;18.70;16.15;;;19.10;92.70;;;19.53;79.92;101303.94;5014851;28;20050;-81
2022/04/15 10:06:10;;;;;;;25.35;16.02;;;19.20;92.60;;;19.58;77.88;101302.88;5015691;28;20045;-81